createdAt,value
2018-09-21T00:02:32.698Z,16.30
2018-09-21T00:05:08.028Z,16.20
2018-09-21T00:07:43.678Z,16.20
2018-09-21T00:10:19.309Z,16.20
2018-09-21T00:12:54.778Z,16.30
2018-09-21T00:15:30.488Z,16.40
2018-09-21T00:18:06.071Z,16.40
2018-09-21T00:20:41.482Z,16.30
2018-09-21T00:23:17.071Z,16.30
2018-09-21T00:25:52.388Z,16.30
2018-09-21T00:28:27.828Z,16.30
2018-09-21T00:31:03.238Z,16.20
2018-09-21T00:33:38.517Z,16.20
2018-09-21T00:36:13.834Z,16.30
2018-09-21T00:38:49.510Z,16.40
2018-09-21T00:41:25.009Z,16.30
2018-09-21T00:44:00.588Z,16.30
2018-09-21T00:46:35.999Z,16.10
2018-09-21T00:49:11.408Z,16.00
2018-09-21T00:51:47.237Z,16.00
2018-09-21T00:54:22.761Z,16.00
2018-09-21T00:56:58.258Z,15.90
2018-09-21T00:59:33.648Z,16.00
2018-09-21T01:02:08.918Z,15.90
2018-09-21T01:04:45.318Z,15.90
2018-09-21T01:07:20.833Z,16.10
2018-09-21T01:09:56.138Z,16.10
2018-09-21T01:12:31.640Z,16.30
2018-09-21T01:15:07.148Z,16.20
2018-09-21T01:17:42.571Z,16.10
2018-09-21T01:20:18.018Z,16.00
2018-09-21T01:22:53.408Z,15.90
2018-09-21T01:25:29.109Z,15.80
2018-09-21T01:28:04.887Z,15.80
2018-09-21T01:30:40.388Z,15.90
2018-09-21T01:33:15.868Z,15.90
2018-09-21T01:35:51.519Z,15.80
2018-09-21T01:38:26.867Z,15.80
2018-09-21T01:41:02.279Z,15.80
2018-09-21T01:43:37.838Z,15.80
2018-09-21T01:46:13.388Z,15.60
2018-09-21T01:48:48.837Z,15.60
2018-09-21T01:51:24.397Z,15.60
2018-09-21T01:53:59.828Z,15.50
2018-09-21T01:56:35.070Z,15.60
2018-09-21T01:59:10.612Z,15.70
2018-09-21T02:01:45.849Z,15.70
2018-09-21T02:04:25.576Z,15.80
2018-09-21T02:07:00.837Z,15.80
2018-09-21T02:09:36.281Z,15.80
2018-09-21T02:12:11.702Z,15.80
2018-09-21T02:14:47.467Z,15.90
2018-09-21T02:17:22.998Z,15.90
2018-09-21T02:19:58.557Z,15.90
2018-09-21T02:22:34.089Z,15.90
2018-09-21T02:25:09.756Z,16.00
2018-09-21T02:27:45.207Z,16.20
2018-09-21T02:30:20.847Z,16.20
2018-09-21T02:32:56.498Z,16.30
2018-09-21T02:35:32.037Z,16.30
2018-09-21T02:38:07.880Z,16.40
2018-09-21T02:40:43.427Z,16.30
2018-09-21T02:43:19.088Z,16.40
2018-09-21T02:45:54.618Z,16.50
2018-09-21T02:48:30.198Z,16.60
2018-09-21T02:51:05.729Z,16.70
2018-09-21T02:53:41.387Z,16.60
2018-09-21T02:56:17.228Z,16.40
2018-09-21T02:58:52.588Z,16.30
2018-09-21T03:01:27.927Z,16.30
2018-09-21T03:04:03.460Z,16.30
2018-09-21T03:06:38.897Z,16.30
2018-09-21T03:09:14.623Z,16.50
2018-09-21T03:11:50.179Z,16.70
2018-09-21T03:14:25.647Z,16.60
2018-09-21T03:17:01.198Z,16.60
2018-09-21T03:19:36.658Z,16.50
2018-09-21T03:22:12.059Z,16.60
2018-09-21T03:24:47.427Z,16.70
2018-09-21T03:27:22.972Z,16.80
2018-09-21T03:29:58.286Z,16.70
2018-09-21T03:32:33.780Z,16.80
2018-09-21T03:35:09.356Z,16.70
2018-09-21T03:37:44.815Z,16.80
2018-09-21T03:40:20.309Z,16.70
2018-09-21T03:42:56.039Z,16.70
2018-09-21T03:45:31.268Z,16.80
2018-09-21T03:48:06.729Z,16.80
2018-09-21T03:50:42.378Z,16.80
2018-09-21T03:53:17.888Z,17.00
2018-09-21T03:55:53.278Z,17.20
2018-09-21T03:58:28.768Z,17.20
2018-09-21T04:01:04.222Z,17.10
2018-09-21T04:03:39.697Z,17.20
2018-09-21T04:06:15.327Z,17.20
2018-09-21T04:08:50.550Z,17.20
2018-09-21T04:11:26.018Z,17.20
2018-09-21T04:14:01.677Z,17.20
2018-09-21T04:16:37.116Z,17.20
2018-09-21T04:19:12.776Z,17.10
2018-09-21T04:21:48.177Z,17.20
2018-09-21T04:24:23.777Z,17.20
2018-09-21T04:26:59.156Z,17.40
2018-09-21T04:29:34.752Z,17.30
2018-09-21T04:32:10.267Z,17.30
2018-09-21T04:34:45.737Z,17.40
2018-09-21T04:37:21.416Z,17.40
2018-09-21T04:39:56.727Z,17.40
2018-09-21T04:42:32.056Z,17.40
2018-09-21T04:45:10.317Z,17.30
2018-09-21T04:47:45.899Z,17.30
2018-09-21T04:50:21.267Z,17.30
2018-09-21T04:52:56.497Z,17.40
2018-09-21T04:55:31.947Z,17.30
2018-09-21T04:58:07.288Z,17.30
2018-09-21T05:00:42.908Z,17.40
2018-09-21T05:03:18.352Z,17.30
2018-09-21T05:05:53.718Z,17.30
2018-09-21T05:08:29.058Z,17.40
2018-09-21T05:11:04.784Z,17.50
2018-09-21T05:13:40.439Z,17.50
2018-09-21T05:16:15.938Z,17.60
2018-09-21T05:18:51.471Z,17.50
2018-09-21T05:21:26.769Z,17.60
2018-09-21T05:24:02.028Z,17.80
2018-09-21T05:26:37.426Z,17.70
2018-09-21T05:29:12.897Z,17.70
2018-09-21T05:31:48.397Z,17.80
2018-09-21T05:34:23.926Z,17.90
2018-09-21T05:36:59.379Z,17.80
2018-09-21T05:39:34.877Z,17.90
2018-09-21T05:42:10.217Z,18.00
2018-09-21T05:44:45.687Z,18.00
2018-09-21T05:47:21.346Z,18.00
2018-09-21T05:49:57.780Z,18.00
2018-09-21T05:52:33.477Z,18.20
2018-09-21T05:55:09.039Z,18.30
2018-09-21T05:57:44.408Z,18.30
2018-09-21T06:00:19.707Z,18.30
2018-09-21T06:02:55.098Z,18.20
2018-09-21T06:05:30.667Z,18.30
2018-09-21T06:08:06.379Z,18.40
2018-09-21T06:10:41.828Z,18.30
2018-09-21T06:13:17.407Z,18.20
2018-09-21T06:15:52.917Z,18.30
2018-09-21T06:18:28.496Z,18.40
2018-09-21T06:21:03.949Z,18.40
2018-09-21T06:23:39.707Z,18.60
2018-09-21T06:26:15.232Z,18.80
2018-09-21T06:28:50.715Z,18.80
2018-09-21T06:31:26.197Z,18.80
2018-09-21T06:34:01.745Z,18.90
2018-09-21T06:36:37.533Z,18.90
2018-09-21T06:39:13.137Z,19.00
2018-09-21T06:41:48.427Z,19.00
2018-09-21T06:44:23.873Z,19.00
2018-09-21T06:46:59.467Z,19.00
2018-09-21T06:49:34.847Z,18.90
2018-09-21T06:52:10.491Z,18.90
2018-09-21T06:54:45.907Z,19.00
2018-09-21T06:57:21.398Z,19.20
2018-09-21T06:59:56.808Z,19.30
2018-09-21T07:02:32.344Z,19.40
2018-09-21T07:05:14.853Z,19.50
2018-09-21T07:07:50.230Z,19.60
2018-09-21T07:10:25.844Z,19.70
2018-09-21T07:13:01.627Z,19.80
2018-09-21T07:15:37.148Z,19.90
2018-09-21T07:18:12.597Z,20.00
2018-09-21T07:20:48.046Z,20.10
2018-09-21T07:23:23.707Z,20.10
2018-09-21T07:25:59.119Z,20.20
2018-09-21T07:28:34.777Z,20.10
2018-09-21T07:31:10.245Z,20.20
2018-09-21T07:33:45.718Z,20.30
2018-09-21T07:36:21.117Z,20.30
2018-09-21T07:38:56.817Z,20.30
2018-09-21T07:41:32.388Z,20.30
2018-09-21T07:44:07.967Z,20.30
2018-09-21T07:46:43.476Z,20.30
2018-09-21T07:49:19.062Z,20.30
2018-09-21T07:51:54.577Z,20.30
2018-09-21T07:54:30.199Z,20.30
2018-09-21T07:57:05.788Z,20.50
2018-09-21T07:59:41.447Z,20.60
2018-09-21T08:02:16.898Z,20.70
2018-09-21T08:04:52.427Z,20.70
2018-09-21T08:07:27.852Z,20.80
2018-09-21T08:10:03.166Z,20.90
2018-09-21T08:12:38.536Z,21.00
2018-09-21T08:15:14.109Z,20.90
2018-09-21T08:17:49.652Z,20.90
2018-09-21T08:20:25.176Z,21.00
2018-09-21T08:23:00.857Z,21.10
2018-09-21T08:25:36.177Z,21.10
2018-09-21T08:28:11.726Z,21.20
2018-09-21T08:30:47.367Z,21.30
2018-09-21T08:33:22.747Z,21.40
2018-09-21T08:35:58.247Z,21.50
2018-09-21T08:38:33.798Z,21.70
2018-09-21T08:41:09.237Z,21.80
2018-09-21T08:43:44.652Z,21.90
2018-09-21T08:46:20.123Z,22.00
2018-09-21T08:48:55.919Z,22.00
2018-09-21T08:51:31.627Z,22.00
2018-09-21T08:54:07.417Z,22.10
2018-09-21T08:56:43.029Z,22.00
2018-09-21T08:59:18.496Z,21.90
2018-09-21T09:01:54.028Z,21.80
2018-09-21T09:04:29.697Z,21.80
2018-09-21T09:07:05.110Z,21.80
2018-09-21T09:09:40.577Z,21.80
2018-09-21T09:12:16.348Z,21.90
2018-09-21T09:14:51.847Z,21.80
2018-09-21T09:17:27.507Z,21.90
2018-09-21T09:20:03.068Z,22.00
2018-09-21T09:22:38.578Z,22.00
2018-09-21T09:25:14.268Z,22.00
2018-09-21T09:27:49.900Z,22.00
2018-09-21T09:30:25.277Z,21.70
2018-09-21T09:33:00.746Z,20.60
2018-09-21T09:35:36.248Z,19.90
2018-09-21T09:38:11.567Z,19.50
2018-09-21T09:40:46.946Z,19.00
2018-09-21T09:43:22.323Z,18.30
2018-09-21T09:45:57.807Z,18.20
2018-09-21T09:48:33.543Z,18.40
2018-09-21T09:51:08.997Z,17.90
2018-09-21T09:53:44.429Z,17.60
2018-09-21T09:56:19.788Z,17.30
2018-09-21T09:58:55.369Z,17.20
2018-09-21T10:01:30.768Z,16.80
2018-09-21T10:04:06.269Z,16.80
2018-09-21T10:06:41.968Z,16.80
2018-09-21T10:09:17.617Z,16.70
2018-09-21T10:11:53.147Z,16.70
2018-09-21T10:14:28.623Z,16.70
2018-09-21T10:17:04.237Z,16.70
2018-09-21T10:19:39.831Z,16.60
2018-09-21T10:22:15.330Z,16.60
2018-09-21T10:24:50.997Z,16.50
2018-09-21T10:27:26.437Z,16.60
2018-09-21T10:30:01.810Z,16.50
2018-09-21T10:32:37.310Z,16.60
2018-09-21T10:35:12.890Z,16.50
2018-09-21T10:37:48.314Z,16.50
2018-09-21T10:40:23.894Z,16.40
2018-09-21T10:42:59.217Z,16.20
2018-09-21T10:45:34.547Z,15.50
2018-09-21T10:48:09.777Z,14.90
2018-09-21T10:50:45.308Z,14.50
2018-09-21T10:53:20.877Z,14.30
2018-09-21T10:55:56.537Z,14.30
2018-09-21T10:58:32.187Z,14.00
2018-09-21T11:01:07.665Z,14.10
2018-09-21T11:03:43.140Z,14.00
2018-09-21T11:06:19.016Z,14.10
2018-09-21T11:08:54.437Z,14.10
2018-09-21T11:11:29.906Z,14.10
2018-09-21T11:14:05.428Z,14.10
2018-09-21T11:16:40.972Z,14.00
2018-09-21T11:19:16.727Z,14.00
2018-09-21T11:21:52.287Z,14.00
2018-09-21T11:24:27.749Z,14.00
2018-09-21T11:27:03.087Z,14.00
2018-09-21T11:29:38.407Z,14.00
2018-09-21T11:32:13.997Z,14.10
2018-09-21T11:34:49.300Z,14.00
2018-09-21T11:37:24.768Z,13.90
2018-09-21T11:40:00.286Z,14.00
2018-09-21T11:42:35.957Z,14.00
2018-09-21T11:45:11.476Z,13.80
2018-09-21T11:47:46.952Z,13.80
2018-09-21T11:50:22.301Z,13.80
2018-09-21T11:52:58.036Z,13.80
2018-09-21T11:55:33.656Z,13.80
2018-09-21T11:58:09.548Z,13.70
2018-09-21T12:00:44.957Z,13.70
2018-09-21T12:03:20.719Z,13.60
2018-09-21T12:05:56.217Z,13.50
2018-09-21T12:08:31.908Z,13.40
2018-09-21T12:11:07.578Z,13.30
2018-09-21T12:13:43.297Z,13.40
2018-09-21T12:16:18.697Z,13.40
2018-09-21T12:18:54.308Z,13.40
2018-09-21T12:21:29.838Z,13.50
2018-09-21T12:24:05.088Z,13.50
2018-09-21T12:26:40.657Z,13.50
2018-09-21T12:29:16.263Z,13.60
2018-09-21T12:31:51.827Z,13.50
2018-09-21T12:34:27.560Z,13.30
2018-09-21T12:37:03.029Z,13.30
2018-09-21T12:39:38.647Z,13.20
2018-09-21T12:42:14.040Z,13.20
2018-09-21T12:44:49.628Z,13.10
2018-09-21T12:47:25.038Z,13.00
2018-09-21T12:50:00.789Z,13.00
2018-09-21T12:52:36.097Z,13.10
2018-09-21T12:55:11.428Z,13.10
2018-09-21T12:57:46.913Z,13.00
2018-09-21T13:00:22.408Z,13.20
2018-09-21T13:02:58.107Z,13.10
2018-09-21T13:05:33.628Z,13.00
2018-09-21T13:08:09.277Z,13.00
2018-09-21T13:10:45.106Z,13.10
2018-09-21T13:13:20.379Z,13.10
2018-09-21T13:15:55.842Z,13.20
2018-09-21T13:18:31.419Z,13.20
2018-09-21T13:21:06.996Z,13.20
2018-09-21T13:23:42.553Z,13.20
2018-09-21T13:26:18.068Z,13.00
2018-09-21T13:28:53.779Z,13.00
2018-09-21T13:31:29.139Z,13.20
2018-09-21T13:34:04.647Z,13.10
2018-09-21T13:36:40.167Z,13.30
2018-09-21T13:39:15.738Z,13.30
2018-09-21T13:41:51.351Z,13.20
2018-09-21T13:44:26.709Z,13.30
2018-09-21T13:47:02.137Z,13.30
2018-09-21T13:49:37.517Z,13.30
2018-09-21T13:52:12.937Z,13.40
2018-09-21T13:54:48.712Z,13.20
2018-09-21T13:57:24.151Z,13.20
2018-09-21T13:59:59.683Z,13.30
2018-09-21T14:02:35.204Z,13.50
2018-09-21T14:05:10.971Z,13.30
2018-09-21T14:07:46.602Z,13.40
2018-09-21T14:10:22.054Z,13.80
2018-09-21T14:12:57.547Z,14.30
2018-09-21T14:15:32.950Z,14.50
2018-09-21T14:18:08.648Z,14.60
2018-09-21T14:20:44.072Z,14.80
2018-09-21T14:23:19.308Z,14.80
2018-09-21T14:25:54.850Z,14.80
2018-09-21T14:28:33.224Z,14.80
2018-09-21T14:31:08.518Z,14.10
2018-09-21T14:33:43.967Z,14.10
2018-09-21T14:36:19.547Z,14.20
2018-09-21T14:38:54.947Z,14.20
2018-09-21T14:41:30.438Z,14.30
2018-09-21T14:44:06.107Z,14.30
2018-09-21T14:46:41.647Z,14.40
2018-09-21T14:49:17.087Z,14.40
2018-09-21T14:51:52.508Z,14.50
2018-09-21T14:54:27.974Z,14.40
2018-09-21T14:57:03.526Z,14.40
2018-09-21T14:59:39.095Z,14.30
2018-09-21T15:02:14.497Z,14.10
2018-09-21T15:04:50.076Z,14.00
2018-09-21T15:07:25.489Z,14.00
2018-09-21T15:10:00.787Z,13.90
2018-09-21T15:12:36.332Z,13.60
2018-09-21T15:15:11.705Z,13.50
2018-09-21T15:17:47.429Z,13.70
2018-09-21T15:20:22.958Z,13.80
2018-09-21T15:22:58.393Z,13.80
2018-09-21T15:25:33.988Z,13.90
2018-09-21T15:28:09.455Z,14.00
2018-09-21T15:30:44.797Z,14.00
2018-09-21T15:33:20.296Z,14.00
2018-09-21T15:35:55.796Z,14.00
2018-09-21T15:38:31.259Z,14.00
2018-09-21T15:41:06.923Z,13.80
2018-09-21T15:43:42.311Z,13.80
2018-09-21T15:46:17.678Z,13.80
2018-09-21T15:48:53.209Z,13.90
2018-09-21T15:51:28.889Z,13.90
2018-09-21T15:54:04.566Z,13.80
2018-09-21T15:56:39.949Z,13.80
2018-09-21T15:59:15.308Z,13.70
2018-09-21T16:01:50.616Z,13.60
2018-09-21T16:04:26.215Z,13.60
2018-09-21T16:07:01.727Z,13.50
2018-09-21T16:09:37.165Z,13.50
2018-09-21T16:12:12.593Z,13.50
2018-09-21T16:14:48.000Z,13.50
2018-09-21T16:17:23.476Z,13.40
2018-09-21T16:19:58.758Z,13.40
2018-09-21T16:22:34.286Z,13.30
2018-09-21T16:25:09.525Z,13.30
2018-09-21T16:27:44.966Z,13.30
2018-09-21T16:30:20.728Z,13.30
2018-09-21T16:32:56.187Z,13.20
2018-09-21T16:35:31.717Z,13.30
2018-09-21T16:38:07.317Z,13.30
2018-09-21T16:49:51.155Z,12.30
2018-09-21T16:52:26.778Z,9.50
2018-09-21T16:55:02.309Z,9.30
2018-09-21T16:57:37.854Z,9.40
2018-09-21T17:00:13.329Z,9.40
2018-09-21T17:02:49.080Z,9.40
2018-09-21T17:05:24.435Z,9.40
2018-09-21T17:07:59.856Z,9.50
2018-09-21T17:10:35.228Z,9.50
2018-09-21T17:13:10.878Z,9.50
2018-09-21T17:15:46.249Z,9.40
2018-09-21T17:18:21.538Z,9.30
2018-09-21T17:20:56.918Z,9.20
2018-09-21T17:23:32.336Z,9.20
2018-09-21T17:26:07.935Z,9.20
2018-09-21T17:28:43.725Z,9.10
2018-09-21T17:31:19.469Z,9.00
2018-09-21T17:33:54.829Z,9.00
2018-09-21T17:36:30.356Z,9.10
2018-09-21T17:39:08.569Z,9.00
2018-09-21T17:41:44.125Z,9.00
2018-09-21T17:44:19.557Z,8.90
2018-09-21T17:46:54.811Z,9.00
2018-09-21T17:49:30.395Z,9.00
2018-09-21T17:52:05.688Z,9.10
2018-09-21T17:54:41.165Z,9.10
2018-09-21T17:57:16.665Z,9.20
2018-09-21T17:59:52.341Z,9.30
2018-09-21T18:02:27.774Z,9.20
2018-09-21T18:05:03.448Z,9.30
2018-09-21T18:07:38.958Z,9.30
2018-09-21T18:10:14.617Z,9.30
2018-09-21T18:12:50.248Z,9.40
2018-09-21T18:15:25.958Z,9.40
2018-09-21T18:18:01.280Z,9.40
2018-09-21T18:20:36.790Z,9.30
2018-09-21T18:23:12.378Z,9.30
2018-09-21T18:25:47.847Z,9.30
2018-09-21T18:28:23.317Z,9.30
2018-09-21T18:30:58.887Z,9.30
2018-09-21T18:33:34.348Z,9.40
2018-09-21T18:36:09.863Z,9.40
2018-09-21T18:38:45.619Z,9.20
2018-09-21T18:41:21.215Z,9.10
2018-09-21T18:43:56.600Z,8.90
2018-09-21T18:46:32.265Z,8.90
2018-09-21T18:49:07.628Z,8.70
2018-09-21T18:51:44.061Z,8.80
2018-09-21T18:54:19.594Z,8.80
2018-09-21T18:56:54.988Z,8.80
2018-09-21T18:59:30.678Z,8.80
2018-09-21T19:02:06.165Z,8.80
2018-09-21T19:04:41.676Z,8.80
2018-09-21T19:07:22.128Z,8.80
2018-09-21T19:09:57.593Z,8.90
2018-09-21T19:12:33.154Z,8.80
2018-09-21T19:15:08.824Z,9.00
2018-09-21T19:17:44.355Z,8.90
2018-09-21T19:20:19.595Z,9.00
2018-09-21T19:22:55.038Z,9.00
2018-09-21T19:25:30.388Z,9.00
2018-09-21T19:28:05.715Z,8.90
2018-09-21T19:30:40.982Z,8.90
2018-09-21T19:33:16.279Z,8.80
2018-09-21T19:35:51.748Z,8.80
2018-09-21T19:38:27.061Z,8.80
2018-09-21T19:41:02.448Z,8.80
2018-09-21T19:43:37.825Z,8.80
2018-09-21T19:46:13.286Z,8.70
2018-09-21T19:48:48.726Z,8.70
2018-09-21T19:51:24.417Z,8.80
2018-09-21T19:53:59.869Z,8.90
2018-09-21T19:56:35.224Z,8.90
2018-09-21T19:59:10.711Z,9.00
2018-09-21T20:01:46.078Z,9.00
2018-09-21T20:04:21.506Z,9.00
2018-09-21T20:06:56.924Z,9.10
2018-09-21T20:09:32.507Z,9.10
2018-09-21T20:12:07.974Z,9.30
2018-09-21T20:14:43.290Z,9.20
2018-09-21T20:17:18.827Z,9.20
2018-09-21T20:19:54.224Z,9.20
2018-09-21T20:22:29.626Z,9.20
2018-09-21T20:25:05.295Z,9.10
2018-09-21T20:27:40.753Z,9.10
2018-09-21T20:30:21.077Z,9.00
2018-09-21T20:33:01.414Z,8.90
2018-09-21T20:35:36.916Z,8.90
2018-09-21T20:38:12.324Z,8.80
2018-09-21T20:40:47.667Z,8.80
2018-09-21T20:43:23.213Z,8.80
2018-09-21T20:45:58.534Z,8.70
2018-09-21T20:48:33.884Z,8.70
2018-09-21T20:51:09.307Z,8.70
2018-09-21T20:53:44.997Z,8.70
2018-09-21T20:56:20.609Z,8.60
2018-09-21T20:58:56.123Z,8.70
2018-09-21T21:01:31.925Z,8.60
2018-09-21T21:04:07.686Z,8.60
2018-09-21T21:06:43.237Z,8.60
2018-09-21T21:09:18.762Z,8.60
2018-09-21T21:11:54.424Z,8.60
2018-09-21T21:14:29.924Z,8.70
2018-09-21T21:17:05.413Z,8.60
2018-09-21T21:19:41.155Z,8.60
2018-09-21T21:22:16.744Z,8.70
2018-09-21T21:24:52.234Z,8.60
2018-09-21T21:27:27.574Z,8.70
2018-09-21T21:30:03.118Z,8.70
2018-09-21T21:32:38.367Z,8.70
2018-09-21T21:35:13.934Z,8.70
2018-09-21T21:37:49.346Z,8.80
2018-09-21T21:40:24.787Z,8.80
2018-09-21T21:43:00.243Z,8.70
2018-09-21T21:45:35.484Z,8.80
2018-09-21T21:48:11.046Z,8.80
2018-09-21T21:50:46.363Z,8.80
2018-09-21T21:53:21.933Z,8.80
2018-09-21T21:55:57.542Z,8.80
2018-09-21T21:58:33.217Z,8.80
2018-09-21T22:01:13.847Z,9.00
2018-09-21T22:03:49.104Z,8.90
2018-09-21T22:06:24.833Z,8.90
2018-09-21T22:09:00.413Z,8.90
2018-09-21T22:11:40.879Z,8.90
2018-09-21T22:14:16.284Z,8.90
2018-09-21T22:16:51.976Z,8.90
2018-09-21T22:19:27.537Z,8.90
2018-09-21T22:22:02.947Z,8.90
2018-09-21T22:24:38.537Z,8.90
2018-09-21T22:27:13.936Z,8.90
2018-09-21T22:29:49.727Z,8.90
2018-09-21T22:32:24.957Z,8.90
2018-09-21T22:35:00.397Z,8.80
2018-09-21T22:37:35.644Z,8.80
2018-09-21T22:40:10.956Z,8.80
2018-09-21T22:42:46.174Z,8.80
2018-09-21T22:45:21.709Z,8.80
2018-09-21T22:47:57.036Z,8.80
2018-09-21T22:50:32.515Z,8.80
2018-09-21T22:53:08.087Z,8.80
2018-09-21T22:55:43.545Z,8.80
2018-09-21T22:58:18.966Z,8.80
2018-09-21T23:00:54.404Z,8.90
2018-09-21T23:03:29.940Z,8.80
2018-09-21T23:06:05.314Z,8.80
2018-09-21T23:08:40.839Z,8.70
2018-09-21T23:11:16.324Z,8.70
2018-09-21T23:13:51.837Z,8.70
2018-09-21T23:16:27.340Z,8.70
2018-09-21T23:19:02.837Z,8.70
2018-09-21T23:21:38.243Z,8.60
2018-09-21T23:24:13.695Z,8.70
2018-09-21T23:26:49.245Z,8.70
2018-09-21T23:29:24.794Z,8.60
2018-09-21T23:32:00.036Z,8.70
2018-09-21T23:34:35.665Z,8.60
2018-09-21T23:37:11.546Z,8.60
2018-09-21T23:39:47.026Z,8.60
2018-09-21T23:42:22.384Z,8.60
2018-09-21T23:44:57.989Z,8.60
2018-09-21T23:47:33.428Z,8.70
2018-09-21T23:50:08.900Z,8.80
2018-09-21T23:52:44.147Z,8.70
2018-09-21T23:55:19.475Z,8.60
2018-09-21T23:57:55.014Z,8.70
